Time;durP1;ratioP1;P1;durP2;ratioP2;P2;SDS_P1;SDS_P2;PMS_P1;PMS_P2;Temp;Humidity;BMP_temperature;BMP_pressure;BME280_temperature;BME280_humidity;BME280_pressure;Samples;Min_cycle;Max_cycle;Signal;HPM_P1;HPM_P2
2021/08/30 00:01:52;;;;;;;12.05;8.85;;;15.50;99.90;;;;;;7410510;19;20427;-93
2021/08/30 00:04:21;;;;;;;13.45;9.43;;;15.50;99.90;;;;;;7409553;19;20014;-93
2021/08/30 00:06:53;;;;;;;14.13;9.85;;;15.50;99.90;;;;;;7405098;19;20057;-93
2021/08/30 00:09:29;;;;;;;12.32;8.68;;;15.50;99.90;;;;;;7413610;19;20014;-93
2021/08/30 00:11:59;;;;;;;13.32;9.57;;;15.40;99.90;;;;;;7421378;19;20109;-93
2021/08/30 00:14:37;;;;;;;12.25;8.25;;;15.40;99.90;;;;;;7428666;19;20006;-92
2021/08/30 00:17:08;;;;;;;13.00;8.63;;;15.30;99.90;;;;;;7432768;19;20018;-93
2021/08/30 00:19:38;;;;;;;14.30;8.75;;;15.30;99.90;;;;;;7433850;19;20041;-95
2021/08/30 00:22:07;;;;;;;13.05;9.40;;;15.30;99.90;;;;;;7427639;19;20035;-94
2021/08/30 00:24:42;;;;;;;12.60;8.45;;;15.20;99.90;;;;;;7427679;19;20035;-93
2021/08/30 00:27:13;;;;;;;12.65;8.52;;;15.20;99.90;;;;;;7411277;19;20023;-93
2021/08/30 00:29:42;;;;;;;14.75;9.23;;;15.10;99.90;;;;;;7407359;19;20014;-94
2021/08/30 00:32:13;;;;;;;14.82;9.45;;;15.10;99.90;;;;;;7405693;19;20452;-93
2021/08/30 00:34:44;;;;;;;11.93;8.60;;;15.10;99.90;;;;;;7403038;19;20026;-94
2021/08/30 00:37:14;;;;;;;14.30;8.88;;;15.10;99.90;;;;;;7404371;19;20014;-93
2021/08/30 00:39:46;;;;;;;12.95;8.57;;;15.10;99.90;;;;;;7407237;19;20010;-93
2021/08/30 00:42:16;;;;;;;12.38;8.25;;;15.10;99.90;;;;;;7400535;19;20025;-94
2021/08/30 00:44:46;;;;;;;12.02;7.35;;;15.20;99.90;;;;;;7404224;19;20086;-93
2021/08/30 00:47:15;;;;;;;9.70;6.47;;;15.20;99.90;;;;;;7400517;19;20014;-94
2021/08/30 00:49:46;;;;;;;9.85;6.78;;;15.20;99.90;;;;;;7398899;19;20014;-94
2021/08/30 00:52:17;;;;;;;12.52;7.32;;;15.30;99.90;;;;;;7402141;19;20013;-93
2021/08/30 00:54:49;;;;;;;11.25;6.93;;;15.20;99.90;;;;;;7403698;19;20074;-93
2021/08/30 00:57:20;;;;;;;11.93;7.57;;;15.20;99.90;;;;;;7403731;19;20010;-93
2021/08/30 00:59:51;;;;;;;12.15;7.72;;;15.20;99.90;;;;;;7402472;19;20010;-93
2021/08/30 01:02:20;;;;;;;11.75;7.15;;;15.10;99.90;;;;;;7401704;19;20010;-94
2021/08/30 01:04:51;;;;;;;9.73;6.75;;;15.10;99.90;;;;;;7401247;19;20551;-93
2021/08/30 01:07:29;;;;;;;10.27;7.20;;;15.10;99.90;;;;;;7405552;19;20013;-94
2021/08/30 01:10:07;;;;;;;10.30;7.10;;;15.10;99.90;;;;;;7409437;19;20019;-93
2021/08/30 01:12:42;;;;;;;8.60;6.28;;;15.10;99.90;;;;;;7401615;19;20011;-93
2021/08/30 01:15:18;;;;;;;11.00;6.78;;;15.10;99.90;;;;;;7412762;19;20007;-92
2021/08/30 01:17:50;;;;;;;10.90;6.43;;;15.00;99.90;;;;;;7406645;19;20002;-93
2021/08/30 01:20:27;;;;;;;11.65;6.50;;;15.00;99.90;;;;;;7428210;19;20007;-92
2021/08/30 01:23:02;;;;;;;11.82;5.85;;;15.00;99.90;;;;;;7434960;19;20011;-93
2021/08/30 01:25:39;;;;;;;8.18;5.72;;;15.00;99.90;;;;;;7433124;19;20695;-93
2021/08/30 01:28:09;;;;;;;10.68;6.03;;;15.00;99.90;;;;;;7424707;19;20026;-94
2021/08/30 01:30:40;;;;;;;9.18;6.38;;;15.10;99.90;;;;;;7419900;19;20014;-94
2021/08/30 01:33:13;;;;;;;8.63;6.13;;;15.10;99.90;;;;;;7432148;19;20014;-93
2021/08/30 01:35:44;;;;;;;9.55;5.72;;;15.00;99.90;;;;;;7429290;19;20031;-94
2021/08/30 01:38:14;;;;;;;8.80;5.10;;;15.00;99.90;;;;;;7411568;19;20070;-93
2021/08/30 01:40:49;;;;;;;8.10;5.20;;;15.00;99.90;;;;;;7407897;19;20013;-94
2021/08/30 01:43:21;;;;;;;9.57;6.40;;;15.00;99.90;;;;;;7415325;19;20050;-93
2021/08/30 01:45:50;;;;;;;7.78;5.72;;;15.00;99.90;;;;;;7423026;19;20031;-93
2021/08/30 01:48:24;;;;;;;8.07;4.95;;;15.00;99.90;;;;;;7436279;19;20013;-94
2021/08/30 01:50:54;;;;;;;7.15;4.68;;;15.00;99.90;;;;;;7426592;19;20003;-93
2021/08/30 01:53:24;;;;;;;7.07;4.55;;;15.00;99.90;;;;;;7427847;19;20023;-93
2021/08/30 01:55:57;;;;;;;7.50;4.63;;;15.00;99.90;;;;;;7414171;19;20098;-94
2021/08/30 02:01:12;;;;;;;6.55;4.53;;;14.90;99.90;;;;;;7412805;19;20074;-94
2021/08/30 02:03:47;;;;;;;8.43;5.35;;;14.90;99.90;;;;;;7405357;19;20017;-94
2021/08/30 02:06:22;;;;;;;7.18;4.30;;;14.90;99.90;;;;;;7415401;19;20025;-94
2021/08/30 02:08:52;;;;;;;9.55;5.32;;;14.90;99.90;;;;;;7413604;19;20028;-94
2021/08/30 02:11:27;;;;;;;6.60;4.47;;;14.90;99.90;;;;;;7410438;19;20026;-93
2021/08/30 02:13:58;;;;;;;7.10;4.13;;;15.10;99.90;;;;;;7407477;19;20049;-94
2021/08/30 02:16:28;;;;;;;8.73;4.22;;;14.90;99.90;;;;;;7405234;19;20168;-94
2021/08/30 02:19:15;;;;;;;6.40;4.05;;;14.90;99.90;;;;;;7407679;19;20014;-94
2021/08/30 02:21:48;;;;;;;6.05;3.60;;;14.90;99.90;;;;;;7422720;19;20006;-93
2021/08/30 02:24:25;;;;;;;10.68;7.97;;;14.90;99.90;;;;;;7418517;19;20299;-94
2021/08/30 02:26:58;;;;;;;7.85;5.65;;;14.80;99.90;;;;;;7403601;19;20006;-94
2021/08/30 02:29:31;;;;;;;7.80;4.63;;;14.80;99.90;;;;;;7408044;19;20073;-94
2021/08/30 02:32:06;;;;;;;9.55;4.90;;;14.80;99.90;;;;;;7404425;19;20007;-94
2021/08/30 02:34:40;;;;;;;8.52;4.82;;;14.80;99.90;;;;;;7410375;19;20010;-93
2021/08/30 02:37:11;;;;;;;9.57;4.80;;;14.80;99.90;;;;;;7411221;19;20010;-94
2021/08/30 02:39:47;;;;;;;11.82;6.40;;;14.80;99.90;;;;;;7413708;19;20021;-94
2021/08/30 02:42:18;;;;;;;16.38;8.07;;;14.80;99.90;;;;;;7406136;19;20086;-93
2021/08/30 02:44:49;;;;;;;13.93;7.50;;;14.70;99.90;;;;;;7408969;19;20014;-94
2021/08/30 02:47:21;;;;;;;12.77;7.45;;;14.70;99.90;;;;;;7405759;19;20009;-94
2021/08/30 02:49:55;;;;;;;10.70;5.43;;;14.70;99.90;;;;;;7415010;19;20016;-95
2021/08/30 02:52:26;;;;;;;6.47;4.32;;;14.70;99.90;;;;;;7404202;19;20006;-94
2021/08/30 02:54:56;;;;;;;6.50;3.92;;;14.80;99.90;;;;;;7403808;19;20014;-93
2021/08/30 02:57:28;;;;;;;7.85;3.97;;;14.70;99.90;;;;;;7413928;19;20434;-94
2021/08/30 03:00:00;;;;;;;9.73;5.93;;;14.70;99.90;;;;;;7403697;19;20321;-93
2021/08/30 03:02:30;;;;;;;8.90;4.70;;;14.70;99.90;;;;;;7407373;19;20015;-93
2021/08/30 03:05:03;;;;;;;5.95;3.88;;;14.70;99.90;;;;;;7405603;19;20007;-93
2021/08/30 03:07:37;;;;;;;7.53;3.85;;;14.70;99.90;;;;;;7403308;19;20007;-93
2021/08/30 03:10:09;;;;;;;6.50;4.05;;;14.70;99.90;;;;;;7411171;19;20042;-90
2021/08/30 03:12:42;;;;;;;6.90;3.58;;;14.70;99.90;;;;;;7430977;19;20015;-94
2021/08/30 03:15:19;;;;;;;6.03;3.70;;;14.60;99.90;;;;;;7425508;19;20030;-92
2021/08/30 03:17:50;;;;;;;5.28;3.38;;;14.70;99.90;;;;;;7432989;19;20046;-92
2021/08/30 03:20:26;;;;;;;5.53;3.20;;;14.60;99.90;;;;;;7432126;19;20006;-91
2021/08/30 03:22:57;;;;;;;6.95;3.30;;;14.60;99.90;;;;;;7424722;19;20018;-92
2021/08/30 03:25:30;;;;;;;6.07;3.67;;;14.60;99.90;;;;;;7432444;19;20002;-92
2021/08/30 03:28:01;;;;;;;5.32;3.58;;;14.60;99.90;;;;;;7431572;19;20011;-92
2021/08/30 03:30:31;;;;;;;8.80;4.30;;;14.60;99.90;;;;;;7427097;19;20015;-92
2021/08/30 03:33:02;;;;;;;5.85;3.78;;;14.60;99.90;;;;;;7406593;19;20044;-92
2021/08/30 03:35:36;;;;;;;5.63;3.78;;;14.60;99.90;;;;;;7410815;19;20015;-93
2021/08/30 03:38:06;;;;;;;5.47;3.05;;;14.60;99.90;;;;;;7408519;19;20018;-94
2021/08/30 03:40:35;;;;;;;6.32;3.40;;;14.60;99.90;;;;;;7408023;19;20046;-92
2021/08/30 03:43:06;;;;;;;4.95;2.78;;;14.60;99.90;;;;;;7406093;19;20047;-92
2021/08/30 03:45:36;;;;;;;5.50;2.85;;;14.60;99.90;;;;;;7413704;19;20030;-92
2021/08/30 03:48:07;;;;;;;9.18;3.50;;;14.60;99.90;;;;;;7423872;19;20102;-94
2021/08/30 03:50:40;;;;;;;5.05;3.05;;;14.60;99.90;;;;;;7429186;19;20015;-92
2021/08/30 03:53:11;;;;;;;5.50;3.40;;;14.60;99.90;;;;;;7427039;19;20015;-92
2021/08/30 03:55:41;;;;;;;4.53;3.10;;;14.50;99.90;;;;;;7431036;19;20035;-91
2021/08/30 03:58:12;;;;;;;6.65;3.55;;;14.50;99.90;;;;;;7427764;19;20018;-93
2021/08/30 04:00:43;;;;;;;7.40;3.13;;;14.50;99.90;;;;;;7422094;19;20011;-93
2021/08/30 04:03:14;;;;;;;4.82;3.00;;;14.50;99.90;;;;;;7404855;19;20090;-93
2021/08/30 04:05:52;;;;;;;4.03;2.50;;;14.50;99.90;;;;;;7407019;19;20010;-94
2021/08/30 04:08:25;;;;;;;5.25;2.60;;;14.50;99.90;;;;;;7409643;19;20007;-93
2021/08/30 04:10:55;;;;;;;4.50;2.75;;;14.50;99.90;;;;;;7427172;19;20020;-93
2021/08/30 04:13:28;;;;;;;5.55;2.80;;;14.40;99.90;;;;;;7407505;19;20058;-94
2021/08/30 04:15:57;;;;;;;6.15;3.05;;;14.40;99.90;;;;;;7424355;19;20054;-94
2021/08/30 04:18:27;;;;;;;4.13;2.90;;;14.40;99.90;;;;;;7425665;19;20003;-94
2021/08/30 04:20:59;;;;;;;7.65;3.90;;;14.40;99.90;;;;;;7428896;19;20002;-93
2021/08/30 04:23:43;;;;;;;5.53;2.90;;;14.40;99.90;;;;;;7434508;19;20025;-93
2021/08/30 04:26:16;;;;;;;6.88;2.30;;;14.40;99.90;;;;;;7428635;19;20019;-93
2021/08/30 04:28:48;;;;;;;6.72;3.35;;;14.40;99.90;;;;;;7431192;19;20050;-93
2021/08/30 04:31:18;;;;;;;8.02;3.45;;;14.40;99.90;;;;;;7426422;19;20009;-93
2021/08/30 04:33:48;;;;;;;6.82;3.60;;;14.40;99.90;;;;;;7407877;19;20010;-93
2021/08/30 04:36:21;;;;;;;6.07;3.05;;;14.40;99.90;;;;;;7413533;19;20010;-93
2021/08/30 04:38:50;;;;;;;5.35;2.63;;;14.40;99.90;;;;;;7401619;19;20011;-94
2021/08/30 04:41:21;;;;;;;4.05;2.30;;;14.50;99.90;;;;;;7403589;19;20051;-94
2021/08/30 04:43:53;;;;;;;4.35;2.63;;;14.50;99.90;;;;;;7401821;19;20006;-93
2021/08/30 04:46:23;;;;;;;4.82;2.40;;;14.50;99.90;;;;;;7403940;19;20444;-94
2021/08/30 04:48:52;;;;;;;3.92;2.35;;;14.60;99.90;;;;;;7410149;19;20086;-93
2021/08/30 04:51:25;;;;;;;4.75;2.50;;;14.60;99.90;;;;;;7406031;19;20316;-94
2021/08/30 04:53:57;;;;;;;5.45;2.63;;;14.60;99.90;;;;;;7418982;19;20006;-93
2021/08/30 04:56:27;;;;;;;4.63;2.45;;;14.70;99.90;;;;;;7415617;19;20017;-93
2021/08/30 04:58:56;;;;;;;5.43;2.92;;;14.70;99.90;;;;;;7409784;19;20036;-93
2021/08/30 05:01:28;;;;;;;19.15;10.10;;;14.70;99.90;;;;;;7402867;19;20006;-94
2021/08/30 05:03:58;;;;;;;5.72;3.28;;;14.90;99.90;;;;;;7411334;19;20002;-94
2021/08/30 05:06:31;;;;;;;5.47;2.50;;;14.90;99.90;;;;;;7406378;19;20019;-93
2021/08/30 05:09:00;;;;;;;4.00;2.03;;;14.90;99.90;;;;;;7401493;19;20010;-94
2021/08/30 05:11:38;;;;;;;3.80;2.13;;;14.90;99.90;;;;;;7405311;19;20031;-93
2021/08/30 05:14:07;;;;;;;5.13;2.00;;;15.00;99.90;;;;;;7404304;19;20006;-93
2021/08/30 05:16:37;;;;;;;4.85;2.20;;;14.90;99.90;;;;;;7404378;19;20016;-94
2021/08/30 05:19:13;;;;;;;4.32;2.30;;;14.90;99.90;;;;;;7413701;19;20046;-94
2021/08/30 05:21:46;;;;;;;4.25;2.15;;;15.00;99.90;;;;;;7415104;19;20006;-93
2021/08/30 05:24:15;;;;;;;3.90;1.98;;;15.00;99.90;;;;;;7430173;19;20042;-93
2021/08/30 05:26:48;;;;;;;3.67;1.77;;;15.00;99.90;;;;;;7424093;19;20024;-93
2021/08/30 05:29:19;;;;;;;4.47;2.20;;;14.90;99.90;;;;;;7420457;19;20013;-93
2021/08/30 05:31:49;;;;;;;4.20;2.20;;;15.00;99.90;;;;;;7416438;19;20013;-93
2021/08/30 05:34:19;;;;;;;3.58;2.20;;;15.00;99.90;;;;;;7422325;19;20010;-95
2021/08/30 05:36:52;;;;;;;5.22;2.40;;;15.00;99.90;;;;;;7403352;19;20039;-93
2021/08/30 05:39:24;;;;;;;5.28;2.40;;;15.00;99.90;;;;;;7402195;19;20046;-94
2021/08/30 05:42:03;;;;;;;5.15;2.95;;;15.00;99.90;;;;;;7401646;19;20025;-94
2021/08/30 05:44:36;;;;;;;5.93;3.42;;;15.00;99.90;;;;;;7406077;19;20010;-94
2021/08/30 05:47:09;;;;;;;5.35;2.97;;;15.00;99.90;;;;;;7407569;19;20018;-94
2021/08/30 05:49:40;;;;;;;3.97;2.30;;;15.10;99.90;;;;;;7403300;19;20044;-94
2021/08/30 05:52:13;;;;;;;4.47;2.55;;;15.20;99.90;;;;;;7410405;19;20044;-94
2021/08/30 05:54:45;;;;;;;10.68;2.95;;;15.40;99.90;;;;;;7405466;19;20078;-93
2021/08/30 05:57:16;;;;;;;4.65;2.70;;;15.50;99.90;;;;;;7416295;19;20031;-94
2021/08/30 05:59:45;;;;;;;4.53;2.88;;;15.70;99.90;;;;;;7423276;19;20014;-93
2021/08/30 06:02:20;;;;;;;4.55;3.05;;;15.70;99.90;;;;;;7403068;19;20322;-94
2021/08/30 06:04:54;;;;;;;8.45;3.50;;;15.80;99.90;;;;;;7401438;19;20029;-93
2021/08/30 06:07:32;;;;;;;6.45;3.63;;;15.90;99.90;;;;;;7404516;19;20017;-94
2021/08/30 06:10:01;;;;;;;5.05;3.00;;;16.00;99.90;;;;;;7424808;19;20039;-94
2021/08/30 06:12:34;;;;;;;4.60;2.95;;;16.00;99.90;;;;;;7418014;19;20002;-96
2021/08/30 06:15:03;;;;;;;6.88;3.75;;;16.00;99.90;;;;;;7429722;19;20035;-96
2021/08/30 06:17:33;;;;;;;5.25;3.10;;;15.90;99.90;;;;;;7435044;19;20006;-92
2021/08/30 06:20:05;;;;;;;5.97;2.90;;;16.00;99.90;;;;;;7417983;19;20042;-93
2021/08/30 06:22:39;;;;;;;4.88;3.10;;;16.10;99.90;;;;;;7430239;19;20007;-89
2021/08/30 06:25:10;;;;;;;3.97;2.63;;;16.30;99.90;;;;;;7414510;19;20042;-92
2021/08/30 06:27:40;;;;;;;3.50;2.25;;;16.50;99.90;;;;;;7412096;19;20014;-91
2021/08/30 06:30:10;;;;;;;4.18;2.65;;;16.70;99.90;;;;;;7417139;19;20006;-93
2021/08/30 06:32:39;;;;;;;3.78;2.35;;;16.70;99.90;;;;;;7407873;19;20020;-93
2021/08/30 06:35:10;;;;;;;5.80;3.00;;;16.70;99.90;;;;;;7416613;19;20010;-94
2021/08/30 06:37:42;;;;;;;5.90;2.78;;;16.80;99.90;;;;;;7428505;19;20027;-93
2021/08/30 06:40:13;;;;;;;4.75;2.60;;;16.80;99.90;;;;;;7423660;19;20015;-93
2021/08/30 06:42:43;;;;;;;3.50;2.25;;;16.80;99.90;;;;;;7409800;19;20010;-93
2021/08/30 06:45:15;;;;;;;5.63;2.83;;;16.70;99.90;;;;;;7414529;19;20038;-94
2021/08/30 06:47:44;;;;;;;10.40;3.75;;;16.70;99.90;;;;;;7412840;19;20002;-92
2021/08/30 06:50:15;;;;;;;7.32;3.45;;;16.60;99.90;;;;;;7414503;19;20019;-94
2021/08/30 06:52:50;;;;;;;4.78;3.00;;;16.50;99.90;;;;;;7433605;19;20067;-92
2021/08/30 06:55:19;;;;;;;7.15;3.17;;;16.50;99.90;;;;;;7435164;19;20007;-93
2021/08/30 06:57:49;;;;;;;5.10;3.00;;;16.50;99.90;;;;;;7425112;19;20015;-94
2021/08/30 07:00:19;;;;;;;6.78;2.67;;;16.60;99.90;;;;;;7411724;19;20011;-92
2021/08/30 07:02:51;;;;;;;5.38;3.15;;;16.70;99.90;;;;;;7410677;19;20011;-87
2021/08/30 07:05:20;;;;;;;5.63;2.55;;;16.90;99.90;;;;;;7407099;19;20325;-93
2021/08/30 07:07:52;;;;;;;4.32;2.63;;;17.00;99.90;;;;;;7409208;19;20013;-91
2021/08/30 07:10:22;;;;;;;4.47;2.67;;;17.10;99.90;;;;;;7422660;19;20018;-94
2021/08/30 07:12:53;;;;;;;3.92;2.72;;;17.20;99.90;;;;;;7410721;19;20044;-93
2021/08/30 07:15:24;;;;;;;5.30;3.50;;;17.10;99.90;;;;;;7411419;19;20107;-95
2021/08/30 07:17:56;;;;;;;5.00;3.40;;;16.80;99.90;;;;;;7404948;19;20435;-94
2021/08/30 07:20:25;;;;;;;5.40;2.30;;;16.70;99.90;;;;;;7413196;19;20011;-94
2021/08/30 07:23:02;;;;;;;8.35;3.30;;;16.60;99.90;;;;;;7424365;19;20011;-93
2021/08/30 07:25:34;;;;;;;5.68;3.30;;;16.50;99.90;;;;;;7428476;19;20002;-94
2021/08/30 07:28:03;;;;;;;5.85;2.90;;;16.50;99.90;;;;;;7430164;19;20017;-92
2021/08/30 07:30:35;;;;;;;4.90;3.20;;;16.50;99.90;;;;;;7428327;19;20012;-94
2021/08/30 07:33:13;;;;;;;5.95;2.58;;;16.50;99.90;;;;;;7429708;19;20003;-93
2021/08/30 07:35:43;;;;;;;9.48;3.67;;;16.70;99.90;;;;;;7424489;19;20021;-91
2021/08/30 07:38:15;;;;;;;5.10;3.58;;;16.80;99.90;;;;;;7429510;19;20014;-90
2021/08/30 07:40:47;;;;;;;7.45;3.67;;;16.90;99.90;;;;;;7427674;19;19999;-90
2021/08/30 07:43:17;;;;;;;6.63;3.38;;;17.00;99.90;;;;;;7430950;19;19999;-93
2021/08/30 07:45:46;;;;;;;5.75;2.92;;;17.20;99.90;;;;;;7428799;19;20014;-91
2021/08/30 07:48:16;;;;;;;4.63;2.72;;;17.30;99.90;;;;;;7425235;19;20025;-90
2021/08/30 07:50:52;;;;;;;4.93;3.00;;;17.50;99.90;;;;;;7428447;19;20023;-92
2021/08/30 07:53:27;;;;;;;7.63;2.70;;;17.70;99.90;;;;;;7432092;19;20025;-92
2021/08/30 07:55:58;;;;;;;6.28;3.10;;;17.80;99.90;;;;;;7422518;19;20052;-92
2021/08/30 07:58:27;;;;;;;4.53;2.88;;;17.70;99.90;;;;;;7426448;19;20006;-90
2021/08/30 08:00:56;;;;;;;10.52;2.38;;;17.70;99.90;;;;;;7430470;19;20107;-95
2021/08/30 08:03:26;;;;;;;4.00;2.53;;;17.80;99.90;;;;;;7416851;19;20102;-95
2021/08/30 08:05:58;;;;;;;4.20;2.45;;;17.90;99.90;;;;;;7421926;19;20007;-95
2021/08/30 08:08:30;;;;;;;4.63;2.20;;;18.10;99.90;;;;;;7417552;19;20007;-94
2021/08/30 08:11:00;;;;;;;3.35;1.80;;;18.20;99.90;;;;;;7426841;19;20023;-96
2021/08/30 08:13:32;;;;;;;7.85;3.55;;;18.30;99.90;;;;;;7417922;19;20353;-91
2021/08/30 08:16:02;;;;;;;6.35;3.40;;;18.40;99.90;;;;;;7413430;19;20014;-91
2021/08/30 08:18:42;;;;;;;6.18;3.22;;;18.50;99.90;;;;;;7414150;19;20016;-92
2021/08/30 08:21:15;;;;;;;5.40;3.08;;;18.50;99.90;;;;;;7409354;19;20028;-92
2021/08/30 08:23:52;;;;;;;4.28;2.88;;;18.50;99.90;;;;;;7406770;19;20148;-93
2021/08/30 08:26:23;;;;;;;5.05;2.85;;;18.50;99.90;;;;;;7407290;19;20010;-92
2021/08/30 08:28:54;;;;;;;5.55;2.97;;;18.50;99.90;;;;;;7404107;19;20002;-91
2021/08/30 08:31:23;;;;;;;6.22;2.70;;;18.70;99.90;;;;;;7406823;19;19999;-91
2021/08/30 08:33:56;;;;;;;3.38;1.88;;;19.00;99.90;;;;;;7406192;19;20017;-92
2021/08/30 08:36:27;;;;;;;9.32;2.30;;;19.40;99.90;;;;;;7403734;19;20030;-90
2021/08/30 08:38:59;;;;;;;4.50;2.50;;;19.60;99.90;;;;;;7404790;19;20017;-92
2021/08/30 08:41:29;;;;;;;10.18;3.42;;;19.70;99.90;;;;;;7406718;19;20014;-92
2021/08/30 08:44:01;;;;;;;10.70;3.28;;;19.60;99.90;;;;;;7404907;19;20078;-93
2021/08/30 08:46:35;;;;;;;7.88;2.30;;;19.40;99.90;;;;;;7418154;19;20017;-89
2021/08/30 08:49:10;;;;;;;4.97;2.30;;;19.20;99.90;;;;;;7410446;19;20433;-92
2021/08/30 08:51:40;;;;;;;2.55;1.65;;;19.00;99.90;;;;;;7408194;19;20035;-91
2021/08/30 08:54:13;;;;;;;2.53;1.70;;;18.90;99.90;;;;;;7410992;19;20309;-92
2021/08/30 08:56:43;;;;;;;4.68;2.47;;;18.70;99.90;;;;;;7414688;19;20040;-93
2021/08/30 08:59:18;;;;;;;4.32;1.80;;;18.60;99.90;;;;;;7420596;19;20044;-93
2021/08/30 09:01:59;;;;;;;4.28;1.83;;;18.70;99.90;;;;;;7425807;19;20027;-92
2021/08/30 09:04:33;;;;;;;5.53;2.28;;;18.80;99.90;;;;;;7422248;19;20010;-92
2021/08/30 09:07:14;;;;;;;6.93;1.85;;;19.20;99.90;;;;;;7416727;19;20010;-91
2021/08/30 09:09:47;;;;;;;7.18;1.45;;;19.70;99.90;;;;;;7418265;19;20014;-91
2021/08/30 09:12:23;;;;;;;4.70;1.55;;;20.20;99.90;;;;;;7415226;19;20014;-91
2021/08/30 09:14:53;;;;;;;5.15;1.65;;;20.70;99.90;;;;;;7421790;19;20034;-90
2021/08/30 09:17:25;;;;;;;3.20;1.27;;;20.90;99.90;;;;;;7412697;19;19999;-88
2021/08/30 09:19:57;;;;;;;4.78;1.50;;;20.90;99.90;;;;;;7416461;19;20010;-91
2021/08/30 09:22:31;;;;;;;2.75;1.27;;;20.60;99.90;;;;;;7407180;19;20014;-91
2021/08/30 09:25:13;;;;;;;3.13;1.50;;;20.40;99.90;;;;;;7404898;19;20038;-91
2021/08/30 09:27:45;;;;;;;4.43;1.60;;;20.30;99.90;;;;;;7402661;19;20003;-90
2021/08/30 09:30:18;;;;;;;3.72;1.83;;;20.60;99.90;;;;;;7406927;19;20327;-91
2021/08/30 09:32:50;;;;;;;4.60;2.05;;;21.00;99.90;;;;;;7410897;19;20011;-92
2021/08/30 09:35:23;;;;;;;5.07;2.35;;;21.50;99.90;;;;;;7412723;19;20048;-91
2021/08/30 09:37:53;;;;;;;7.47;1.95;;;22.10;99.90;;;;;;7414476;19;20029;-91
2021/08/30 09:40:29;;;;;;;3.72;1.85;;;22.30;99.90;;;;;;7408534;19;20038;-90
2021/08/30 09:42:59;;;;;;;6.25;1.80;;;22.50;99.90;;;;;;7423119;19;20434;-90
2021/08/30 09:45:33;;;;;;;4.03;2.13;;;22.60;99.90;;;;;;7412368;19;20013;-91
2021/08/30 09:48:04;;;;;;;4.15;2.15;;;22.30;99.80;;;;;;7410528;19;20014;-90
2021/08/30 09:50:38;;;;;;;11.82;2.95;;;22.10;99.90;;;;;;7435195;19;20003;-90
2021/08/30 09:53:07;;;;;;;3.05;1.50;;;22.30;99.90;;;;;;7429798;19;20015;-90
2021/08/30 09:55:39;;;;;;;6.72;1.50;;;22.60;99.40;;;;;;7429417;19;20022;-90
2021/08/30 09:58:09;;;;;;;3.58;1.67;;;22.90;97.90;;;;;;7436181;19;20022;-89
2021/08/30 10:00:43;;;;;;;5.43;1.70;;;23.10;96.70;;;;;;7437578;19;20018;-90
2021/08/30 10:03:14;;;;;;;6.13;3.10;;;23.20;96.20;;;;;;7430981;19;20018;-88
2021/08/30 10:05:45;;;;;;;2.78;1.60;;;23.10;95.80;;;;;;7421783;19;20006;-90
2021/08/30 10:08:20;;;;;;;2.40;1.55;;;23.10;96.10;;;;;;7410713;19;20333;-89
2021/08/30 10:10:53;;;;;;;4.13;1.70;;;23.20;95.50;;;;;;7410136;19;20003;-90
2021/08/30 10:13:23;;;;;;;3.42;1.90;;;23.20;94.70;;;;;;7409803;19;20035;-90
2021/08/30 10:15:53;;;;;;;2.83;1.80;;;23.10;94.60;;;;;;7410287;19;20314;-90
2021/08/30 10:18:26;;;;;;;4.13;2.33;;;23.00;94.30;;;;;;7415869;19;20044;-90
2021/08/30 10:20:56;;;;;;;2.95;1.90;;;22.80;94.60;;;;;;7411557;19;20010;-91
2021/08/30 10:23:25;;;;;;;5.68;2.38;;;22.60;94.80;;;;;;7409533;19;20010;-90
2021/08/30 10:26:02;;;;;;;3.90;2.10;;;22.60;94.80;;;;;;7410716;19;20412;-91
2021/08/30 10:28:42;;;;;;;4.00;2.20;;;22.50;95.10;;;;;;7409644;19;20039;-90
2021/08/30 10:31:22;;;;;;;8.05;2.22;;;22.60;95.10;;;;;;7413494;19;20010;-89
2021/08/30 10:33:55;;;;;;;4.55;1.92;;;22.70;95.00;;;;;;7415186;19;20011;-90
2021/08/30 10:36:26;;;;;;;5.93;2.30;;;22.90;94.50;;;;;;7409574;19;20042;-90
2021/08/30 10:39:01;;;;;;;4.50;2.20;;;22.90;94.50;;;;;;7407699;19;20007;-89
2021/08/30 10:41:37;;;;;;;3.53;2.20;;;22.80;94.70;;;;;;7408138;19;20032;-89
2021/08/30 10:44:11;;;;;;;4.15;2.17;;;22.50;95.20;;;;;;7419461;19;20027;-91
2021/08/30 10:46:44;;;;;;;3.65;2.30;;;22.40;95.70;;;;;;7414347;19;20010;-91
2021/08/30 10:49:17;;;;;;;5.03;2.17;;;22.40;95.60;;;;;;7421834;19;20010;-89
2021/08/30 10:51:47;;;;;;;6.63;2.35;;;22.50;95.70;;;;;;7427843;19;20002;-91
2021/08/30 10:54:19;;;;;;;4.38;2.30;;;22.70;94.60;;;;;;7433050;19;20015;-90
2021/08/30 10:57:09;;;;;;;3.38;2.08;;;23.00;94.30;;;;;;7429026;19;20022;-88
2021/08/30 10:59:47;;;;;;;4.38;2.40;;;23.00;94.10;;;;;;7425136;19;20042;-88
2021/08/30 11:02:23;;;;;;;4.78;2.35;;;22.70;94.10;;;;;;7418093;19;20009;-89
2021/08/30 11:04:55;;;;;;;6.55;2.90;;;22.20;94.90;;;;;;7418105;19;20428;-87
2021/08/30 11:07:27;;;;;;;7.57;3.20;;;21.70;95.90;;;;;;7420967;19;20067;-90
2021/08/30 11:09:57;;;;;;;5.80;3.28;;;21.30;97.10;;;;;;7419366;19;20040;-91
2021/08/30 11:12:29;;;;;;;7.35;3.92;;;20.80;98.90;;;;;;7420716;19;20048;-91
2021/08/30 11:15:00;;;;;;;6.00;3.92;;;20.50;99.90;;;;;;7422896;19;20066;-90
2021/08/30 11:17:31;;;;;;;9.25;3.88;;;20.40;99.90;;;;;;7414661;19;20011;-91
2021/08/30 11:20:02;;;;;;;7.30;3.25;;;20.50;99.90;;;;;;7410650;19;20307;-91
2021/08/30 11:22:32;;;;;;;4.75;2.78;;;20.60;99.90;;;;;;7408280;19;20003;-93
2021/08/30 11:25:03;;;;;;;4.30;2.80;;;20.60;99.90;;;;;;7405148;19;20011;-91
2021/08/30 11:27:37;;;;;;;5.53;3.10;;;20.70;99.90;;;;;;7407080;19;20401;-91
2021/08/30 11:30:12;;;;;;;6.30;3.35;;;20.70;99.90;;;;;;7403748;19;20002;-91
2021/08/30 11:32:43;;;;;;;5.70;3.15;;;20.70;99.90;;;;;;7409073;19;20042;-90
2021/08/30 11:35:16;;;;;;;8.27;4.47;;;20.70;99.90;;;;;;7408266;19;20014;-94
2021/08/30 11:37:46;;;;;;;6.00;3.63;;;20.60;99.90;;;;;;7407623;19;20109;-92
2021/08/30 11:40:17;;;;;;;5.97;3.30;;;20.70;99.90;;;;;;7410454;19;20427;-92
2021/08/30 11:42:49;;;;;;;6.00;2.13;;;20.90;99.90;;;;;;7405995;19;20006;-93
2021/08/30 11:45:21;;;;;;;14.60;9.18;;;21.00;99.90;;;;;;7406545;19;20039;-92
2021/08/30 11:47:53;;;;;;;6.22;1.83;;;21.30;99.90;;;;;;7406069;19;20010;-93
2021/08/30 11:50:24;;;;;;;4.10;1.70;;;21.60;99.90;;;;;;7408459;19;20077;-90
2021/08/30 11:52:59;;;;;;;3.47;1.50;;;21.70;99.60;;;;;;7405026;19;20006;-90
2021/08/30 11:55:35;;;;;;;5.03;1.65;;;21.60;98.80;;;;;;7403747;19;19999;-90
2021/08/30 11:58:07;;;;;;;3.60;1.50;;;21.40;98.90;;;;;;7406029;19;20029;-91
2021/08/30 12:00:37;;;;;;;3.67;1.60;;;21.30;99.10;;;;;;7405604;19;20017;-90
2021/08/30 12:03:16;;;;;;;2.97;1.67;;;21.10;99.80;;;;;;7405322;19;20437;-90
2021/08/30 12:05:47;;;;;;;2.40;1.50;;;20.80;99.90;;;;;;7400650;19;20026;-90
2021/08/30 12:08:17;;;;;;;2.85;1.50;;;20.40;99.90;;;;;;7404441;19;20007;-92
2021/08/30 12:10:46;;;;;;;4.10;1.60;;;20.30;99.90;;;;;;7407701;19;20308;-93
2021/08/30 12:13:33;;;;;;;2.90;1.17;;;20.30;99.90;;;;;;7411184;19;20051;-91
2021/08/30 12:16:02;;;;;;;2.95;1.13;;;20.30;99.90;;;;;;7406580;19;20006;-94
2021/08/30 12:18:34;;;;;;;4.47;1.00;;;20.40;99.90;;;;;;7410164;19;20082;-92
2021/08/30 12:21:04;;;;;;;4.82;0.90;;;20.50;99.70;;;;;;7408938;19;20016;-90
2021/08/30 12:23:34;;;;;;;1.75;0.98;;;20.70;99.20;;;;;;7408714;19;20010;-90
2021/08/30 12:26:03;;;;;;;10.63;2.70;;;20.80;99.10;;;;;;7409377;19;20010;-88
2021/08/30 12:28:46;;;;;;;12.15;2.22;;;21.00;99.00;;;;;;7414247;19;20014;-90
2021/08/30 12:31:25;;;;;;;5.10;2.38;;;21.10;98.80;;;;;;7409445;19;20010;-91
2021/08/30 12:34:09;;;;;;;8.10;2.47;;;21.20;98.80;;;;;;7412173;19;20006;-91
2021/08/30 12:36:39;;;;;;;4.43;1.60;;;21.30;98.80;;;;;;7416064;19;20021;-91
2021/08/30 12:39:11;;;;;;;4.95;1.42;;;21.30;98.50;;;;;;7408697;19;20007;-91
2021/08/30 12:41:41;;;;;;;3.78;1.67;;;21.30;99.10;;;;;;7406391;19;20058;-90
2021/08/30 12:44:16;;;;;;;3.75;1.52;;;21.20;99.30;;;;;;7404482;19;20074;-90
2021/08/30 12:46:45;;;;;;;4.28;1.70;;;21.00;99.70;;;;;;7405569;19;20005;-90
2021/08/30 12:49:15;;;;;;;4.80;1.50;;;20.90;99.90;;;;;;7404612;19;20010;-90
2021/08/30 12:51:45;;;;;;;3.85;1.80;;;20.90;99.90;;;;;;7400917;19;20010;-91
2021/08/30 12:54:15;;;;;;;4.45;1.60;;;20.80;99.90;;;;;;7404486;19;20113;-90
2021/08/30 12:56:44;;;;;;;10.98;3.75;;;20.90;99.90;;;;;;7403199;19;20006;-91
2021/08/30 12:59:16;;;;;;;5.40;1.70;;;21.00;99.90;;;;;;7402175;19;20022;-91
2021/08/30 13:01:47;;;;;;;5.55;1.60;;;21.00;99.90;;;;;;7403955;19;20003;-91
2021/08/30 13:04:17;;;;;;;7.85;2.28;;;20.80;99.90;;;;;;7406831;19;20011;-90
2021/08/30 13:06:46;;;;;;;2.90;1.90;;;20.60;99.90;;;;;;7403965;19;20074;-92
2021/08/30 13:09:17;;;;;;;4.43;2.25;;;20.40;99.90;;;;;;7402347;19;20114;-92
2021/08/30 13:11:46;;;;;;;3.97;1.90;;;20.10;99.90;;;;;;7400395;19;20010;-91
2021/08/30 13:14:18;;;;;;;6.93;2.42;;;19.80;99.90;;;;;;7402094;19;20003;-92